Time,TemperatureF,DewpointF,PressureIn,WindDirection,WindDirectionDegrees,WindSpeedMPH,WindSpeedGustMPH,Humidity,HourlyPrecipIn,Conditions,Clouds,dailyrainin,SolarRadiationWatts/m^2,SoftwareType,DateUTC
2013-10-16 00:43:00,40.0,39.0,-100.00,North,352,6.0,12.0,95,0.00,,,0.37,0.000000,,2013-10-16 05:43:00,
2013-10-16 00:53:00,40.0,39.0,-100.00,North,352,6.0,12.0,95,0.00,,,0.37,0.000000,,2013-10-16 05:53:00,
2013-10-16 01:03:00,40.0,39.0,-100.00,North,352,6.0,12.0,95,0.00,,,0.37,0.000000,,2013-10-16 06:03:00,
2013-10-16 01:43:00,40.0,39.0,-100.00,North,352,5.0,11.0,95,0.00,,,0.33,0.000000,,2013-10-16 06:43:00,
2013-10-16 01:52:00,40.0,39.0,-100.00,North,352,5.0,11.0,95,0.00,,,0.33,0.000000,,2013-10-16 06:52:00,
2013-10-16 02:02:00,40.0,39.0,-100.00,North,352,5.0,11.0,95,0.00,,,0.33,0.000000,,2013-10-16 07:02:00,
2013-10-16 02:42:00,40.0,38.0,-100.00,NNW,344,6.0,12.0,93,0.00,,,0.33,0.000000,,2013-10-16 07:42:00,
2013-10-16 02:53:00,40.0,38.0,-100.00,NNW,344,6.0,12.0,93,0.00,,,0.33,0.000000,,2013-10-16 07:53:00,
2013-10-16 03:02:00,40.0,38.0,-100.00,NNW,344,6.0,12.0,93,0.00,,,0.33,0.000000,,2013-10-16 08:02:00,
2013-10-16 03:22:00,39.0,37.0,-100.00,North,350,4.0,10.0,93,0.00,,,0.33,0.000000,,2013-10-16 08:22:00,
2013-10-16 03:32:00,39.0,37.0,-100.00,North,350,4.0,10.0,93,0.00,,,0.33,0.000000,,2013-10-16 08:32:00,
2013-10-16 03:42:00,39.0,37.0,-100.00,North,350,4.0,10.0,93,0.00,,,0.33,0.000000,,2013-10-16 08:42:00,
2013-10-16 03:52:00,39.0,37.0,-100.00,North,350,4.0,10.0,93,0.00,,,0.33,0.000000,,2013-10-16 08:52:00,
2013-10-16 04:02:00,39.0,37.0,-100.00,North,350,4.0,10.0,93,0.00,,,0.33,0.000000,,2013-10-16 09:02:00,
2013-10-16 04:43:00,39.0,37.0,-100.00,NNW,331,4.0,9.0,93,0.00,,,0.33,0.000000,,2013-10-16 09:43:00,
2013-10-16 04:54:00,39.0,37.0,-100.00,NNW,331,4.0,9.0,93,0.00,,,0.33,0.000000,,2013-10-16 09:54:00,
2013-10-16 05:03:00,39.0,37.0,-100.00,NNW,331,4.0,9.0,93,0.00,,,0.33,0.000000,,2013-10-16 10:03:00,
2013-10-16 05:42:00,39.0,37.0,-100.00,NNW,341,5.0,10.0,92,0.00,,,0.31,0.000000,,2013-10-16 10:42:00,
2013-10-16 05:53:00,39.0,37.0,-100.00,NNW,341,5.0,10.0,92,0.00,,,0.31,0.000000,,2013-10-16 10:53:00,
2013-10-16 06:03:00,39.0,37.0,-100.00,NNW,341,5.0,10.0,92,0.00,,,0.31,0.000000,,2013-10-16 11:03:00,
2013-10-16 06:42:00,39.0,36.0,-100.00,NNW,335,4.0,9.0,89,0.00,,,0.30,0.000000,,2013-10-16 11:42:00,
2013-10-16 06:52:00,39.0,36.0,-100.00,NNW,335,4.0,9.0,89,0.00,,,0.30,0.000000,,2013-10-16 11:52:00,
2013-10-16 07:02:00,39.0,36.0,-100.00,NNW,335,4.0,9.0,89,0.00,,,0.30,0.000000,,2013-10-16 12:02:00,
2013-10-16 07:43:00,38.0,34.0,-100.00,NW,324,4.0,7.0,85,0.00,,,0.24,0.000000,,2013-10-16 12:43:00,
2013-10-16 07:52:00,38.0,34.0,-100.00,NW,324,4.0,7.0,85,0.00,,,0.24,0.000000,,2013-10-16 12:52:00,
2013-10-16 08:01:00,38.0,34.0,-100.00,NW,324,4.0,7.0,85,0.00,,,0.24,0.000000,,2013-10-16 13:01:00,
2013-10-16 08:42:00,38.0,33.0,-100.00,NNW,329,3.0,9.0,82,0.00,,,0.19,12.000000,,2013-10-16 13:42:00,
2013-10-16 08:52:00,38.0,33.0,-100.00,NNW,329,3.0,9.0,82,0.00,,,0.19,12.000000,,2013-10-16 13:52:00,
2013-10-16 09:01:00,38.0,33.0,-100.00,NNW,329,3.0,9.0,82,0.00,,,0.19,12.000000,,2013-10-16 14:01:00,
2013-10-16 09:42:00,41.0,35.0,-100.00,NNW,330,5.0,7.0,80,0.00,,,0.15,141.000000,,2013-10-16 14:42:00,
2013-10-16 09:52:00,41.0,35.0,-100.00,NNW,330,5.0,7.0,80,0.00,,,0.15,141.000000,,2013-10-16 14:52:00,
2013-10-16 10:02:00,41.0,35.0,-100.00,NNW,330,5.0,7.0,80,0.00,,,0.15,141.000000,,2013-10-16 15:02:00,
2013-10-16 10:43:00,42.0,34.0,-100.00,NNW,340,4.0,6.0,72,0.00,,,0.13,197.000000,,2013-10-16 15:43:00,
2013-10-16 10:53:00,42.0,34.0,-100.00,NNW,340,4.0,6.0,72,0.00,,,0.13,197.000000,,2013-10-16 15:53:00,
2013-10-16 11:03:00,42.0,34.0,-100.00,NNW,340,4.0,6.0,72,0.00,,,0.13,197.000000,,2013-10-16 16:03:00,
2013-10-16 11:23:00,45.0,34.0,-100.00,NW,307,5.0,9.0,65,0.00,,,0.12,423.000000,,2013-10-16 16:23:00,
2013-10-16 11:32:00,45.0,34.0,-100.00,NW,307,5.0,9.0,65,0.00,,,0.12,423.000000,,2013-10-16 16:32:00,
2013-10-16 11:42:00,45.0,34.0,-100.00,NW,307,5.0,9.0,65,0.00,,,0.12,423.000000,,2013-10-16 16:42:00,
2013-10-16 11:53:00,45.0,34.0,-100.00,NW,307,5.0,9.0,65,0.00,,,0.12,423.000000,,2013-10-16 16:53:00,
2013-10-16 12:02:00,45.0,34.0,-100.00,NW,307,5.0,9.0,65,0.00,,,0.12,423.000000,,2013-10-16 17:02:00,
2013-10-16 12:22:00,48.0,34.0,-100.00,SSW,194,4.0,9.0,59,0.00,,,0.11,561.000000,,2013-10-16 17:22:00,
2013-10-16 12:33:00,48.0,34.0,-100.00,SSW,194,4.0,9.0,59,0.00,,,0.11,561.000000,,2013-10-16 17:33:00,
2013-10-16 12:43:00,48.0,34.0,-100.00,SSW,194,4.0,9.0,59,0.00,,,0.11,561.000000,,2013-10-16 17:43:00,
2013-10-16 12:52:00,48.0,34.0,-100.00,SSW,194,4.0,9.0,59,0.00,,,0.11,561.000000,,2013-10-16 17:52:00,
2013-10-16 13:02:00,48.0,34.0,-100.00,SSW,194,4.0,9.0,59,0.00,,,0.11,561.000000,,2013-10-16 18:02:00,
2013-10-16 13:42:00,50.0,35.0,-100.00,WNW,303,4.0,11.0,57,0.00,,,0.07,625.000000,,2013-10-16 18:42:00,
2013-10-16 13:52:00,50.0,35.0,-100.00,WNW,303,4.0,11.0,57,0.00,,,0.07,625.000000,,2013-10-16 18:52:00,
2013-10-16 14:02:00,50.0,35.0,-100.00,WNW,303,4.0,11.0,57,0.00,,,0.07,625.000000,,2013-10-16 19:02:00,
2013-10-16 14:22:00,52.0,33.0,-100.00,SW,224,7.0,11.0,49,0.00,,,0.05,611.000000,,2013-10-16 19:22:00,
2013-10-16 14:32:00,52.0,33.0,-100.00,SW,224,7.0,11.0,49,0.00,,,0.05,611.000000,,2013-10-16 19:32:00,
2013-10-16 14:42:00,52.0,33.0,-100.00,SW,224,7.0,11.0,49,0.00,,,0.05,611.000000,,2013-10-16 19:42:00,
2013-10-16 14:52:00,52.0,33.0,-100.00,SW,224,7.0,11.0,49,0.00,,,0.05,611.000000,,2013-10-16 19:52:00,
2013-10-16 15:03:00,52.0,33.0,-100.00,SW,224,7.0,11.0,49,0.00,,,0.05,611.000000,,2013-10-16 20:03:00,
2013-10-16 15:22:00,53.0,32.0,-100.00,West,271,6.0,12.0,44,0.00,,,0.03,540.000000,,2013-10-16 20:22:00,
2013-10-16 15:32:00,53.0,32.0,-100.00,West,271,6.0,12.0,44,0.00,,,0.03,540.000000,,2013-10-16 20:32:00,
2013-10-16 15:43:00,53.0,32.0,-100.00,West,271,6.0,12.0,44,0.00,,,0.03,540.000000,,2013-10-16 20:43:00,
2013-10-16 15:52:00,53.0,32.0,-100.00,West,271,6.0,12.0,44,0.00,,,0.03,540.000000,,2013-10-16 20:52:00,
2013-10-16 16:02:00,53.0,32.0,-100.00,West,271,6.0,12.0,44,0.00,,,0.03,540.000000,,2013-10-16 21:02:00,
2013-10-16 16:04:00,54.0,35.0,-100.00,West,274,6.0,12.0,48,0.00,,,0.01,422.000000,,2013-10-16 21:04:00,
2013-10-16 16:23:00,54.0,35.0,-100.00,West,274,6.0,12.0,48,0.00,,,0.01,422.000000,,2013-10-16 21:23:00,
2013-10-16 16:34:00,54.0,35.0,-100.00,West,274,6.0,12.0,48,0.00,,,0.01,422.000000,,2013-10-16 21:34:00,
2013-10-16 16:44:00,54.0,35.0,-100.00,West,274,6.0,12.0,48,0.00,,,0.01,422.000000,,2013-10-16 21:44:00,
2013-10-16 16:54:00,54.0,35.0,-100.00,West,274,6.0,12.0,48,0.00,,,0.01,422.000000,,2013-10-16 21:54:00,
2013-10-16 17:42:00,53.0,33.0,-100.00,West,280,6.0,12.0,47,0.00,,,0.01,268.000000,,2013-10-16 22:42:00,
2013-10-16 17:54:00,53.0,33.0,-100.00,West,280,6.0,12.0,47,0.00,,,0.01,268.000000,,2013-10-16 22:54:00,
2013-10-16 18:02:00,53.0,33.0,-100.00,West,280,6.0,12.0,47,0.00,,,0.01,268.000000,,2013-10-16 23:02:00,
2013-10-16 18:42:00,50.0,32.0,-100.00,WSW,255,4.0,9.0,49,0.00,,,0.01,99.000000,,2013-10-16 23:42:00,
2013-10-16 18:53:00,50.0,32.0,-100.00,WSW,255,4.0,9.0,49,0.00,,,0.01,99.000000,,2013-10-16 23:53:00,
2013-10-16 19:02:00,50.0,32.0,-100.00,WSW,255,4.0,9.0,49,0.00,,,0.01,99.000000,,2013-10-17 00:02:00,
2013-10-16 19:42:00,44.0,33.0,-100.00,SW,218,4.0,5.0,64,0.00,,,0.00,3.000000,,2013-10-17 00:42:00,
2013-10-16 19:52:00,44.0,33.0,-100.00,SW,218,4.0,5.0,64,0.00,,,0.00,3.000000,,2013-10-17 00:52:00,
2013-10-16 20:02:00,44.0,33.0,-100.00,SW,218,4.0,5.0,64,0.00,,,0.00,3.000000,,2013-10-17 01:02:00,
2013-10-16 20:43:00,37.0,31.0,-100.00,SSW,210,4.0,6.0,80,0.00,,,0.00,0.000000,,2013-10-17 01:43:00,
2013-10-16 20:52:00,37.0,31.0,-100.00,SSW,210,4.0,6.0,80,0.00,,,0.00,0.000000,,2013-10-17 01:52:00,
2013-10-16 21:03:00,37.0,31.0,-100.00,SSW,210,4.0,6.0,80,0.00,,,0.00,0.000000,,2013-10-17 02:03:00,
2013-10-16 21:53:00,35.0,31.0,-100.00,SW,216,4.0,6.0,84,0.00,,,0.00,0.000000,,2013-10-17 02:53:00,
2013-10-16 22:02:00,35.0,31.0,-100.00,SW,216,4.0,6.0,84,0.00,,,0.00,0.000000,,2013-10-17 03:02:00,
2013-10-16 22:04:00,35.0,31.0,-100.00,SW,215,4.0,5.0,85,0.00,,,0.00,0.000000,,2013-10-17 03:04:00,
2013-10-16 22:22:00,35.0,31.0,-100.00,SW,215,4.0,5.0,85,0.00,,,0.00,0.000000,,2013-10-17 03:22:00,
2013-10-16 22:34:00,35.0,31.0,-100.00,SW,215,4.0,5.0,85,0.00,,,0.00,0.000000,,2013-10-17 03:34:00,
2013-10-16 22:44:00,35.0,31.0,-100.00,SW,215,4.0,5.0,85,0.00,,,0.00,0.000000,,2013-10-17 03:44:00,
2013-10-16 22:54:00,35.0,31.0,-100.00,SW,215,4.0,5.0,85,0.00,,,0.00,0.000000,,2013-10-17 03:54:00,
2013-10-16 23:04:00,35.0,30.0,-100.00,SSW,192,2.0,6.0,82,0.00,,,0.00,0.000000,,2013-10-17 04:04:00,
2013-10-16 23:43:00,35.0,30.0,-100.00,SSW,192,2.0,6.0,82,0.00,,,0.00,0.000000,,2013-10-17 04:43:00,
2013-10-16 23:54:00,35.0,30.0,-100.00,SSW,192,2.0,6.0,82,0.00,,,0.00,0.000000,,2013-10-17 04:54:00,